KELZ/ELZ METAR and TAF weather

Enter ICAO airport designator
Station Type Date Time Source
KELZ METAR 2019/10/23 12:56 UTC NOAA

KELZ 231256Z AUTO 23007KT 10SM CLR 06/03 A2993 RMK AO2 SLP142 T00610028


Station Type Date Time Source
KELZ Decoded METAR 2019/10/23 12:56 UTC NOAA

WELLSVILLE MUNICIPAL AIRPORT, NY, United States (KELZ) 42-06N 077-60W 646M
Oct 23, 2019 - 08:56 AM EDT / 2019.10.23 1256 UTC
Wind: from the SW (230 degrees) at 8 MPH (7 KT):0
Visibility: 10 mile(s):0
Sky conditions: clear
Temperature: 43.0 F (6.1 C)
Dew Point: 37.0 F (2.8 C)
Relative Humidity: 79%
Pressure (altimeter): 29.93 in. Hg (1013 hPa)
ob: KELZ 231256Z AUTO 23007KT 10SM CLR 06/03 A2993 RMK AO2 SLP142 T00610028
cycle: 13

Station Type Date Time Source
KELZ TAF UTC NOAA

Error!

Example: see airport list